createdAt,value
2023-03-23T15:59:27.651Z,743.95
2023-03-23T16:01:56.117Z,682.97
2023-03-23T16:04:24.595Z,965.42
2023-03-23T16:06:56.356Z,854.22
2023-03-23T16:09:24.381Z,999.90
2023-03-23T16:11:52.422Z,438.55
2023-03-23T16:14:20.611Z,812.42
2023-03-23T16:16:51.149Z,900.55
2023-03-23T16:19:20.788Z,634.45
2023-03-23T16:21:48.895Z,710.35
2023-03-23T16:24:18.308Z,866.33
2023-03-23T16:26:46.825Z,588.17
2023-03-23T16:29:33.686Z,669.47
2023-03-23T16:32:05.054Z,889.13
2023-03-23T16:34:34.376Z,915.85
2023-03-23T16:37:02.657Z,921.47
2023-03-23T16:39:32.067Z,999.90
2023-03-23T16:42:00.126Z,896.70
2023-03-23T16:44:28.142Z,813.78
2023-03-23T16:46:56.146Z,868.80
2023-03-23T16:49:24.160Z,823.55
2023-03-23T16:51:52.148Z,670.42
2023-03-23T16:54:20.192Z,901.22
2023-03-23T16:56:49.736Z,647.78
2023-03-23T16:59:17.810Z,623.03
2023-03-23T17:01:45.867Z,796.55
2023-03-23T17:04:15.679Z,788.10
2023-03-23T17:06:44.136Z,566.47
2023-03-23T17:09:12.226Z,636.97
2023-03-23T17:11:40.518Z,659.47
2023-03-23T17:14:10.033Z,781.22
2023-03-23T17:16:38.663Z,761.05
2023-03-23T17:19:07.209Z,669.10
2023-03-23T17:21:35.335Z,652.05
2023-03-23T17:24:03.486Z,793.07
2023-03-23T17:26:31.519Z,697.35
2023-03-23T17:28:59.629Z,969.77
2023-03-23T17:31:29.280Z,567.53
2023-03-23T17:33:57.861Z,870.58
2023-03-23T17:36:25.974Z,851.13
2023-03-23T17:38:54.023Z,652.23
2023-03-23T17:41:22.165Z,999.90
2023-03-23T17:43:50.203Z,876.70
2023-03-23T17:46:18.400Z,832.33
2023-03-23T17:48:47.818Z,695.03
2023-03-23T17:51:15.888Z,904.57
2023-03-23T17:53:43.895Z,782.83
2023-03-23T17:56:11.936Z,967.07
2023-03-23T17:58:39.956Z,866.50
2023-03-23T18:01:08.396Z,999.90
2023-03-23T18:03:37.126Z,708.00
2023-03-23T18:06:08.687Z,581.22
2023-03-23T18:08:37.319Z,554.77
2023-03-23T18:11:06.732Z,546.10
2023-03-23T18:13:37.047Z,566.70
2023-03-23T18:16:06.802Z,589.97
2023-03-23T18:18:36.193Z,494.17
2023-03-23T18:21:08.823Z,309.47
2023-03-23T18:23:46.171Z,314.00
2023-03-23T18:26:17.894Z,502.40
2023-03-23T18:28:46.038Z,187.07
2023-03-23T18:31:16.167Z,237.73
2023-03-23T18:33:46.805Z,200.43
2023-03-23T18:36:18.341Z,342.10
2023-03-23T18:38:47.244Z,178.00
2023-03-23T18:41:16.210Z,305.73
2023-03-23T18:43:44.403Z,363.13
2023-03-23T18:46:12.471Z,441.63
2023-03-23T18:48:40.674Z,436.80
2023-03-23T18:51:09.504Z,48.10
2023-03-23T18:53:38.901Z,645.20
2023-03-23T18:56:09.178Z,139.70
2023-03-23T18:58:37.498Z,177.97
2023-03-23T19:01:07.651Z,183.17
2023-03-23T19:03:36.208Z,131.57
2023-03-23T19:06:06.028Z,409.47
2023-03-23T19:08:34.931Z,76.53
2023-03-23T19:11:05.923Z,148.97
2023-03-23T19:13:53.788Z,136.63
2023-03-23T19:16:29.232Z,132.07
2023-03-23T19:18:57.196Z,262.03
2023-03-23T19:21:26.240Z,244.63
2023-03-23T19:23:55.715Z,170.87
2023-03-23T19:26:25.403Z,408.43
2023-03-23T19:29:24.530Z,189.00
2023-03-23T19:31:44.805Z,288.20
2023-03-23T19:34:15.114Z,433.60
2023-03-23T19:36:50.316Z,366.70
2023-03-23T19:39:22.738Z,210.73
2023-03-23T19:41:51.891Z,689.73
2023-03-23T19:44:21.207Z,138.03
2023-03-23T19:46:49.305Z,242.30
2023-03-23T19:49:17.830Z,158.27
2023-03-23T19:51:46.008Z,146.33
2023-03-23T19:54:14.037Z,330.13
2023-03-23T19:56:43.253Z,168.50
2023-03-23T19:59:14.972Z,385.47
2023-03-23T20:01:45.349Z,238.37
2023-03-23T20:04:13.347Z,373.57
2023-03-23T20:06:41.348Z,296.67
2023-03-23T20:09:09.345Z,461.27
2023-03-23T20:11:37.364Z,295.70
2023-03-23T20:14:05.610Z,208.10
2023-03-23T20:16:33.652Z,258.47
2023-03-23T20:19:04.757Z,269.00
2023-03-23T20:21:33.723Z,249.70
2023-03-23T20:24:01.729Z,232.30
2023-03-23T20:26:32.400Z,270.70
2023-03-23T20:29:00.595Z,256.03
2023-03-23T20:31:32.121Z,151.10
2023-03-23T20:34:06.221Z,302.67
2023-03-23T20:36:36.326Z,359.10
2023-03-23T20:39:06.662Z,311.77
2023-03-23T20:41:36.659Z,166.27
2023-03-23T20:44:05.396Z,171.67
2023-03-23T20:46:33.497Z,383.53
2023-03-23T20:49:03.414Z,360.00
2023-03-23T20:51:31.353Z,322.80
2023-03-23T20:54:00.297Z,486.40
2023-03-23T20:56:28.831Z,216.13
2023-03-23T20:58:57.453Z,288.60
2023-03-23T21:01:26.302Z,149.27
2023-03-23T21:03:57.050Z,329.73
2023-03-23T21:06:28.856Z,509.17
2023-03-23T21:08:58.076Z,359.97
2023-03-23T21:11:27.670Z,213.80
2023-03-23T21:13:56.135Z,562.83
2023-03-23T21:16:25.227Z,183.10
2023-03-23T21:18:53.335Z,182.27
2023-03-23T21:21:21.957Z,307.37
2023-03-23T21:23:53.095Z,169.37
2023-03-23T21:26:23.166Z,222.43
2023-03-23T21:28:54.014Z,189.20
2023-03-23T21:31:25.444Z,274.43
2023-03-23T21:33:53.813Z,267.87
2023-03-23T21:36:21.807Z,184.23
2023-03-23T21:38:51.165Z,212.87
2023-03-23T21:41:19.691Z,95.50
2023-03-23T21:43:48.116Z,207.47
2023-03-23T21:46:18.424Z,94.70
2023-03-23T21:48:51.426Z,107.00
2023-03-23T21:51:22.588Z,34.07
2023-03-23T21:53:54.252Z,93.73
2023-03-23T21:56:23.758Z,236.67
2023-03-23T21:58:52.076Z,253.43
2023-03-23T22:01:20.239Z,369.77
2023-03-23T22:03:48.463Z,251.13
2023-03-23T22:06:19.274Z,297.10
2023-03-23T22:08:48.639Z,434.57
2023-03-23T22:11:20.377Z,327.47
2023-03-23T22:13:48.969Z,271.10
2023-03-23T22:16:19.046Z,340.47
2023-03-23T22:18:48.013Z,371.77
2023-03-23T22:21:17.213Z,370.27
2023-03-23T22:23:46.299Z,303.67
2023-03-23T22:26:16.292Z,208.50
2023-03-23T22:28:47.038Z,147.13
2023-03-23T22:31:18.632Z,215.20
2023-03-23T22:33:47.816Z,495.80
2023-03-23T22:36:16.805Z,499.27
2023-03-23T22:38:47.092Z,432.30
2023-03-23T22:41:19.057Z,488.37
2023-03-23T22:43:48.776Z,393.87
2023-03-23T22:46:17.373Z,432.77
2023-03-23T22:48:45.851Z,284.70
2023-03-23T22:51:15.772Z,220.03
2023-03-23T22:53:43.937Z,198.23
2023-03-23T22:56:12.750Z,277.30
2023-03-23T22:58:41.134Z,138.10
2023-03-23T23:01:14.011Z,230.10
2023-03-23T23:03:42.132Z,163.00
2023-03-23T23:06:11.955Z,192.60
2023-03-23T23:08:41.288Z,240.17
2023-03-23T23:11:11.025Z,486.50
2023-03-23T23:13:40.101Z,427.53
2023-03-23T23:16:10.798Z,430.10
2023-03-23T23:18:40.455Z,454.97
2023-03-23T23:21:11.382Z,299.43
2023-03-23T23:23:39.860Z,128.73
2023-03-23T23:26:08.404Z,407.67
2023-03-23T23:28:37.160Z,427.30
2023-03-23T23:31:06.351Z,260.97
2023-03-23T23:33:35.698Z,229.67
2023-03-23T23:36:04.150Z,482.83
2023-03-23T23:38:32.095Z,352.47
2023-03-23T23:41:00.050Z,363.67
2023-03-23T23:43:28.003Z,274.80
2023-03-23T23:45:56.007Z,341.20
2023-03-23T23:48:24.186Z,448.83
2023-03-23T23:50:53.600Z,444.17
2023-03-23T23:53:23.020Z,200.13
2023-03-23T23:55:51.262Z,313.77
2023-03-23T23:58:19.739Z,289.43
